Time;durP1;ratioP1;P1;durP2;ratioP2;P2;SDS_P1;SDS_P2;PMS_P1;PMS_P2;Temp;Humidity;BMP_temperature;BMP_pressure;BME280_temperature;BME280_humidity;BME280_pressure;Samples;Min_cycle;Max_cycle;Signal;HPM_P1;HPM_P2
2023/03/16 00:01:42;;;;;;;7.45;3.13;;;;;;;;;;4920723;29;20429;-83
2023/03/16 00:04:09;;;;;;;7.55;3.00;;;;;;;;;;4882020;29;20450;-83
2023/03/16 00:06:35;;;;;;;8.93;3.00;;;;;;;;;;4919518;29;20460;-83
2023/03/16 00:09:02;;;;;;;7.45;3.05;;;;;;;;;;4881723;29;20514;-83
2023/03/16 00:11:32;;;;;;;10.02;3.17;;;;;;;;;;4866731;29;20433;-83
2023/03/16 00:13:59;;;;;;;8.95;3.05;;;;;;;;;;4895078;29;20448;-83
2023/03/16 00:16:25;;;;;;;9.33;3.17;;;;;;;;;;4886675;29;20431;-83
2023/03/16 00:18:51;;;;;;;9.98;3.63;;;;;;;;;;4882488;29;20437;-83
2023/03/16 00:21:17;;;;;;;7.47;3.40;;;;;;;;;;4880323;29;20437;-83
2023/03/16 00:23:43;;;;;;;8.75;3.53;;;;;;;;;;4879735;29;20961;-83
2023/03/16 00:26:11;;;;;;;7.20;3.17;;;;;;;;;;4893310;29;20448;-83
2023/03/16 00:28:38;;;;;;;8.65;3.40;;;;;;;;;;4883920;29;20495;-83
2023/03/16 00:31:06;;;;;;;10.45;3.88;;;;;;;;;;4897714;29;20463;-83
2023/03/16 00:33:35;;;;;;;10.15;3.40;;;;;;;;;;4877037;29;20444;-83
2023/03/16 00:36:10;;;;;;;8.55;3.40;;;;;;;;;;4899063;29;20923;-83
2023/03/16 00:38:37;;;;;;;10.15;3.53;;;;;;;;;;4869664;29;20437;-84
2023/03/16 00:41:05;;;;;;;9.90;3.92;;;;;;;;;;4931638;29;20489;-83
2023/03/16 00:43:39;;;;;;;9.05;3.60;;;;;;;;;;4884699;29;20433;-83
2023/03/16 00:46:06;;;;;;;7.13;3.53;;;;;;;;;;4864072;29;20422;-83
2023/03/16 00:48:33;;;;;;;8.93;3.40;;;;;;;;;;4880112;29;20550;-83
2023/03/16 00:51:01;;;;;;;9.98;3.72;;;;;;;;;;4898850;29;20421;-83
2023/03/16 00:53:27;;;;;;;6.43;3.40;;;;;;;;;;4883725;29;20433;-83
2023/03/16 00:55:54;;;;;;;7.80;3.45;;;;;;;;;;4917400;29;20434;-83
2023/03/16 00:58:20;;;;;;;9.40;3.65;;;;;;;;;;4884260;29;20461;-83
2023/03/16 01:00:48;;;;;;;8.45;3.40;;;;;;;;;;4913613;29;20441;-83
2023/03/16 01:03:14;;;;;;;6.22;3.53;;;;;;;;;;4892998;29;20445;-83
2023/03/16 01:05:40;;;;;;;9.82;3.88;;;;;;;;;;4898366;29;20421;-83
2023/03/16 01:08:07;;;;;;;7.47;3.03;;;;;;;;;;4881611;29;20935;-83
2023/03/16 01:10:39;;;;;;;6.35;3.60;;;;;;;;;;4914174;29;20441;-83
2023/03/16 01:13:06;;;;;;;6.72;3.10;;;;;;;;;;4896554;29;20807;-83
2023/03/16 01:15:33;;;;;;;6.28;3.30;;;;;;;;;;4896690;29;20439;-83
2023/03/16 01:18:00;;;;;;;5.30;3.20;;;;;;;;;;4884345;29;20461;-83
2023/03/16 01:20:26;;;;;;;6.88;3.20;;;;;;;;;;4898805;29;20472;-83
2023/03/16 01:22:53;;;;;;;8.73;3.45;;;;;;;;;;4888646;29;20517;-83
2023/03/16 01:25:20;;;;;;;6.88;3.50;;;;;;;;;;4881318;29;20443;-83
2023/03/16 01:27:46;;;;;;;6.53;3.50;;;;;;;;;;4878854;29;20440;-83
2023/03/16 01:30:12;;;;;;;8.32;3.33;;;;;;;;;;4891063;29;20876;-83
2023/03/16 01:32:39;;;;;;;7.72;3.53;;;;;;;;;;4882898;29;20445;-83
2023/03/16 01:35:06;;;;;;;7.57;3.63;;;;;;;;;;4892354;29;20431;-83
2023/03/16 01:37:32;;;;;;;6.40;3.55;;;;;;;;;;4869260;29;20435;-84
2023/03/16 01:39:58;;;;;;;8.30;3.93;;;;;;;;;;4883343;29;20433;-83
2023/03/16 01:42:24;;;;;;;8.57;4.10;;;;;;;;;;4900727;29;20433;-84
2023/03/16 01:44:55;;;;;;;8.00;3.75;;;;;;;;;;4887575;29;20794;-84
2023/03/16 01:47:22;;;;;;;8.15;3.90;;;;;;;;;;4911800;29;20437;-84
2023/03/16 01:49:56;;;;;;;6.38;3.90;;;;;;;;;;4923452;29;20512;-84
2023/03/16 01:52:25;;;;;;;7.63;4.00;;;;;;;;;;4900960;29;20421;-84
2023/03/16 01:54:54;;;;;;;8.57;3.93;;;;;;;;;;4901155;29;20437;-84
2023/03/16 01:57:25;;;;;;;8.20;4.03;;;;;;;;;;4891314;29;20542;-84
2023/03/16 01:59:57;;;;;;;6.65;3.63;;;;;;;;;;4899426;29;20458;-84
2023/03/16 02:02:24;;;;;;;7.40;4.30;;;;;;;;;;4898936;29;20526;-83
2023/03/16 02:04:51;;;;;;;12.27;3.95;;;;;;;;;;4885867;29;20517;-83
2023/03/16 02:07:18;;;;;;;7.28;4.10;;;;;;;;;;4884422;29;20529;-84
2023/03/16 02:09:46;;;;;;;7.47;4.00;;;;;;;;;;4889415;29;20435;-83
2023/03/16 02:12:17;;;;;;;7.75;4.00;;;;;;;;;;4902109;29;20433;-83
2023/03/16 02:14:47;;;;;;;7.00;4.30;;;;;;;;;;4916425;29;20437;-83
2023/03/16 02:17:14;;;;;;;11.50;5.18;;;;;;;;;;4885317;29;20968;-83
2023/03/16 02:20:07;;;;;;;9.35;4.82;;;;;;;;;;4882564;29;20469;-84
2023/03/16 02:22:35;;;;;;;9.35;4.22;;;;;;;;;;4887147;29;20435;-84
2023/03/16 02:25:01;;;;;;;7.78;4.38;;;;;;;;;;4898942;29;20492;-84
2023/03/16 02:27:35;;;;;;;10.43;4.53;;;;;;;;;;4890280;29;20443;-84
2023/03/16 02:30:13;;;;;;;10.13;4.70;;;;;;;;;;4906210;29;20433;-84
2023/03/16 02:32:39;;;;;;;11.82;4.43;;;;;;;;;;4916450;29;20814;-84
2023/03/16 02:35:06;;;;;;;11.77;4.40;;;;;;;;;;4896947;29;20446;-84
2023/03/16 02:37:32;;;;;;;7.82;4.50;;;;;;;;;;4898476;29;21948;-84
2023/03/16 02:39:59;;;;;;;9.63;4.65;;;;;;;;;;4915350;29;20425;-84
2023/03/16 02:42:26;;;;;;;9.93;4.85;;;;;;;;;;4900280;29;20476;-84
2023/03/16 02:44:55;;;;;;;9.50;4.70;;;;;;;;;;4884792;29;20441;-84
2023/03/16 02:47:28;;;;;;;10.73;4.50;;;;;;;;;;4901088;29;20436;-84
2023/03/16 02:49:54;;;;;;;7.40;4.43;;;;;;;;;;4891571;29;20432;-83
2023/03/16 02:52:20;;;;;;;11.10;4.75;;;;;;;;;;4886049;29;20481;-84
2023/03/16 02:54:46;;;;;;;9.57;5.43;;;;;;;;;;4896101;29;20502;-84
2023/03/16 02:57:12;;;;;;;9.38;5.03;;;;;;;;;;4889211;29;20508;-84
2023/03/16 02:59:38;;;;;;;10.10;4.97;;;;;;;;;;4897629;29;21040;-84
2023/03/16 03:02:04;;;;;;;8.82;5.53;;;;;;;;;;4887839;29;20427;-83
2023/03/16 03:04:31;;;;;;;8.63;4.70;;;;;;;;;;4888487;29;20440;-83
2023/03/16 03:07:03;;;;;;;7.03;4.88;;;;;;;;;;4889008;29;20431;-84
2023/03/16 03:09:31;;;;;;;8.93;5.45;;;;;;;;;;4898812;29;20456;-83
2023/03/16 03:11:57;;;;;;;9.88;5.43;;;;;;;;;;4906244;29;20436;-84
2023/03/16 03:14:24;;;;;;;9.63;5.05;;;;;;;;;;4909960;29;20790;-83
2023/03/16 03:16:51;;;;;;;8.38;5.22;;;;;;;;;;4883800;29;20942;-84
2023/03/16 03:19:17;;;;;;;9.23;5.10;;;;;;;;;;4905326;29;20507;-84
2023/03/16 03:21:43;;;;;;;10.05;5.35;;;;;;;;;;4886982;29;20459;-83
2023/03/16 03:24:10;;;;;;;9.27;5.38;;;;;;;;;;4883010;29;20949;-83
2023/03/16 03:26:37;;;;;;;8.90;5.50;;;;;;;;;;4914390;29;20473;-84
2023/03/16 03:29:03;;;;;;;8.88;5.35;;;;;;;;;;4882381;29;20433;-83
2023/03/16 03:31:29;;;;;;;10.10;5.78;;;;;;;;;;4898174;29;20439;-83
2023/03/16 03:33:55;;;;;;;8.88;5.82;;;;;;;;;;4872666;29;20500;-83
2023/03/16 03:36:22;;;;;;;11.18;5.38;;;;;;;;;;4888101;29;21630;-83
2023/03/16 03:38:53;;;;;;;9.70;5.60;;;;;;;;;;4899044;29;20522;-83
2023/03/16 03:41:21;;;;;;;8.80;5.50;;;;;;;;;;4899059;29;20532;-83
2023/03/16 03:43:50;;;;;;;9.23;5.47;;;;;;;;;;4914440;29;20841;-84
2023/03/16 03:46:19;;;;;;;10.93;5.72;;;;;;;;;;4882275;29;20508;-84
2023/03/16 03:48:48;;;;;;;9.30;5.80;;;;;;;;;;4884420;29;20433;-84
2023/03/16 03:51:14;;;;;;;10.18;5.80;;;;;;;;;;4900704;29;20516;-90
2023/03/16 03:53:40;;;;;;;8.98;5.45;;;;;;;;;;4884954;29;20480;-89
2023/03/16 03:56:07;;;;;;;8.73;6.10;;;;;;;;;;4885182;29;20436;-90
2023/03/16 03:58:40;;;;;;;11.47;6.33;;;;;;;;;;4885043;29;20592;-90
2023/03/16 04:01:06;;;;;;;10.55;5.63;;;;;;;;;;4900434;29;20523;-90
2023/03/16 04:03:37;;;;;;;11.15;6.60;;;;;;;;;;4885840;29;20530;-89
2023/03/16 04:06:06;;;;;;;11.13;6.63;;;;;;;;;;4873219;29;20434;-89
2023/03/16 04:08:32;;;;;;;12.10;6.22;;;;;;;;;;4912781;29;20419;-90
2023/03/16 04:10:58;;;;;;;9.98;6.15;;;;;;;;;;4896464;29;20426;-83
2023/03/16 04:13:24;;;;;;;9.98;6.13;;;;;;;;;;4903051;29;20439;-83
2023/03/16 04:15:55;;;;;;;11.63;6.85;;;;;;;;;;4865845;29;20927;-83
2023/03/16 04:18:25;;;;;;;12.75;6.20;;;;;;;;;;4900496;29;20457;-83
2023/03/16 04:23:47;;;;;;;11.50;6.28;;;;;;;;;;4880577;29;20925;-85
2023/03/16 04:26:21;;;;;;;10.02;6.63;;;;;;;;;;4897940;29;20433;-84
2023/03/16 04:28:47;;;;;;;12.13;6.60;;;;;;;;;;4893282;29;20925;-85
2023/03/16 04:31:14;;;;;;;11.27;6.28;;;;;;;;;;4899967;29;20743;-85
2023/03/16 04:33:41;;;;;;;11.60;6.45;;;;;;;;;;4883919;29;20448;-84
2023/03/16 04:36:08;;;;;;;9.90;6.22;;;;;;;;;;4890518;29;20437;-84
2023/03/16 04:38:34;;;;;;;10.57;5.90;;;;;;;;;;4880234;29;20854;-85
2023/03/16 04:41:11;;;;;;;11.40;5.72;;;;;;;;;;4884847;29;20807;-84
2023/03/16 04:43:43;;;;;;;7.90;5.60;;;;;;;;;;4899291;29;20429;-84
2023/03/16 04:46:13;;;;;;;10.18;5.68;;;;;;;;;;4898188;29;20627;-84
2023/03/16 04:48:39;;;;;;;10.20;5.93;;;;;;;;;;4883090;29;20543;-85
2023/03/16 04:51:10;;;;;;;10.65;6.20;;;;;;;;;;4882659;29;20444;-84
2023/03/16 04:53:36;;;;;;;10.30;5.57;;;;;;;;;;4898692;29;20443;-84
2023/03/16 04:56:02;;;;;;;10.33;5.97;;;;;;;;;;4903846;29;20515;-84
2023/03/16 04:58:31;;;;;;;9.65;5.30;;;;;;;;;;4885642;29;20502;-84
2023/03/16 05:00:57;;;;;;;10.10;5.75;;;;;;;;;;4909481;29;20467;-85
2023/03/16 05:03:24;;;;;;;12.53;6.03;;;;;;;;;;4905898;29;20440;-84
2023/03/16 05:05:50;;;;;;;9.75;6.10;;;;;;;;;;4911789;29;20760;-83
2023/03/16 05:08:16;;;;;;;10.27;5.82;;;;;;;;;;4915780;29;21023;-83
2023/03/16 05:10:43;;;;;;;9.43;5.37;;;;;;;;;;4891301;29;20442;-83
2023/03/16 05:13:09;;;;;;;8.52;5.68;;;;;;;;;;4916567;29;20512;-84
2023/03/16 05:15:36;;;;;;;8.87;5.67;;;;;;;;;;4901930;29;20481;-83
2023/03/16 05:18:02;;;;;;;11.60;6.00;;;;;;;;;;4905813;29;20431;-83
2023/03/16 05:20:28;;;;;;;10.65;5.43;;;;;;;;;;4903440;29;20518;-83
2023/03/16 05:22:54;;;;;;;8.57;5.47;;;;;;;;;;4897940;29;20443;-83
2023/03/16 05:25:20;;;;;;;9.35;5.65;;;;;;;;;;4907620;29;20431;-90
2023/03/16 05:27:52;;;;;;;11.55;5.90;;;;;;;;;;4892297;29;20473;-90
2023/03/16 05:30:19;;;;;;;7.88;5.32;;;;;;;;;;4889990;29;20676;-90
2023/03/16 05:32:45;;;;;;;9.38;5.57;;;;;;;;;;4888879;29;20983;-89
2023/03/16 05:35:15;;;;;;;9.32;5.60;;;;;;;;;;4889111;29;20476;-89
2023/03/16 05:38:02;;;;;;;8.82;5.72;;;;;;;;;;4899896;29;20430;-89
2023/03/16 05:40:36;;;;;;;9.73;5.45;;;;;;;;;;4901092;29;20467;-89
2023/03/16 05:49:38;;;;;;;10.90;5.70;;;4.20;99.90;;;;;;4904059;29;20417;-90
2023/03/16 05:58:47;;;;;;;9.00;5.35;;;;;;;;;;4898781;29;20464;-89
2023/03/16 06:05:00;;;;;;;9.32;5.88;;;;;;;;;;4908892;29;20887;-88
2023/03/16 06:07:42;;;;;;;11.03;6.77;;;;;;;;;;4902131;29;20935;-88
2023/03/16 06:10:34;;;;;;;10.47;6.23;;;;;;;;;;4901244;29;20446;-89
2023/03/16 06:13:01;;;;;;;10.00;6.03;;;;;;;;;;4874890;29;20810;-94
2023/03/16 06:16:01;;;;;;;8.05;5.75;;;;;;;;;;4887649;29;20420;-88
2023/03/16 06:18:55;;;;;;;12.80;6.50;;;;;;;;;;4894442;29;20405;-91
2023/03/16 06:21:24;;;;;;;8.98;5.93;;;;;;;;;;4894474;29;20481;-88
2023/03/16 06:24:01;;;;;;;9.55;6.30;;;;;;;;;;4920361;29;20763;-92
2023/03/16 06:26:27;;;;;;;10.27;6.43;;;;;;;;;;4893720;29;20499;-93
2023/03/16 06:29:30;;;;;;;;;;;;;;;;;;;;;
2023/03/16 06:32:31;;;;;;;10.55;6.60;;;;;;;;;;4917306;29;20469;-93
2023/03/16 06:38:55;;;;;;;9.23;5.97;;;;;;;;;;4799866;29;20430;-92
2023/03/16 06:41:22;;;;;;;9.75;6.00;;;;;;;;;;4895326;29;21029;-93
2023/03/16 06:43:48;;;;;;;9.73;5.70;;;;;;;;;;4883211;29;20421;-92
2023/03/16 06:46:37;;;;;;;11.57;5.93;;;;;;;;;;4903309;29;20413;-93
2023/03/16 06:49:04;;;;;;;9.00;5.88;;;;;;;;;;4908578;29;20516;-92
2023/03/16 06:51:32;;;;;;;9.40;5.68;;;;;;;;;;4880124;29;20757;-93
2023/03/16 06:53:59;;;;;;;9.97;5.70;;;;;;;;;;4906142;29;20437;-93
2023/03/16 06:56:26;;;;;;;9.75;5.72;;;;;;;;;;4898713;29;20458;-94
2023/03/16 06:58:53;;;;;;;11.02;6.32;;;;;;;;;;4901646;29;20516;-92
2023/03/16 07:01:22;;;;;;;9.68;6.00;;;;;;;;;;4871442;29;20423;-92
2023/03/16 07:03:48;;;;;;;8.68;5.50;;;;;;;;;;4894276;29;20480;-92
2023/03/16 07:06:15;;;;;;;8.95;5.65;;;;;;;;;;4870766;29;20768;-89
2023/03/16 07:08:43;;;;;;;10.32;5.78;;;;;;;;;;4900269;29;20538;-92
2023/03/16 07:11:13;;;;;;;9.27;5.82;;;;;;;;;;4889827;29;20532;-92
2023/03/16 07:13:40;;;;;;;10.80;5.68;;;;;;;;;;4884183;29;20441;-90
2023/03/16 07:16:06;;;;;;;8.63;5.40;;;;;;;;;;4889783;29;20432;-89
2023/03/16 07:18:32;;;;;;;8.93;5.40;;;;;;;;;;4895778;29;20460;-89
2023/03/16 07:20:59;;;;;;;12.45;6.28;;;;;;;;;;4890526;29;20428;-90
2023/03/16 07:23:29;;;;;;;8.43;5.40;;;;;;;;;;4893634;29;20496;-91
2023/03/16 07:25:55;;;;;;;9.32;5.65;;;;;;;;;;4889691;29;20428;-89
2023/03/16 07:28:22;;;;;;;9.30;5.18;;;;;;;;;;4887115;29;20461;-90
2023/03/16 07:30:53;;;;;;;9.40;5.53;;;;;;;;;;4883934;29;20431;-90
2023/03/16 07:33:19;;;;;;;9.03;5.23;;;;;;;;;;4878548;29;20454;-90
2023/03/16 07:36:14;;;;;;;10.13;5.38;;;;;;;;;;4888546;29;20439;-90
2023/03/16 07:38:41;;;;;;;8.32;5.10;;;;;;;;;;4872198;29;20510;-90
2023/03/16 07:41:26;;;;;;;9.52;5.65;;;;;;;;;;4882702;29;20404;-92
2023/03/16 07:43:52;;;;;;;7.83;5.20;;;;;;;;;;4881757;29;20459;-91
2023/03/16 07:46:21;;;;;;;7.88;5.40;;;;;;;;;;4867377;29;20440;-93
2023/03/16 07:51:37;;;;;;;8.52;4.97;;;;;;;;;;4899041;29;20454;-93
2023/03/16 07:54:11;;;;;;;8.40;4.97;;;;;;;;;;4885128;29;20439;-90
2023/03/16 07:56:40;;;;;;;8.85;5.15;;;;;;;;;;4867088;29;21006;-89
2023/03/16 07:59:07;;;;;;;9.88;5.50;;;;;;;;;;4871917;29;20430;-89
2023/03/16 08:01:33;;;;;;;8.32;5.20;;;;;;;;;;4865545;29;20942;-90
2023/03/16 08:04:00;;;;;;;7.70;5.20;;;;;;;;;;4865174;29;20816;-88
2023/03/16 08:06:27;;;;;;;8.73;5.28;;;;;;;;;;4881063;29;20419;-89
2023/03/16 08:08:54;;;;;;;9.90;5.53;;;;;;;;;;4863568;29;20490;-89
2023/03/16 08:11:22;;;;;;;14.23;5.35;;;;;;;;;;4865879;29;20424;-89
2023/03/16 08:13:52;;;;;;;8.73;5.20;;;;;;;;;;4889563;29;20527;-87
2023/03/16 08:16:20;;;;;;;8.77;5.20;;;;;;;;;;4873641;29;20434;-87
2023/03/16 08:18:46;;;;;;;8.88;5.60;;;;;;;;;;4864483;29;20426;-88
2023/03/16 08:21:13;;;;;;;8.85;4.95;;;;;;;;;;4880202;29;20589;-88
2023/03/16 08:23:39;;;;;;;7.53;5.15;;;;;;;;;;4879681;29;20439;-87
2023/03/16 08:26:07;;;;;;;7.30;4.85;;;;;;;;;;4867832;29;20486;-86
2023/03/16 08:28:34;;;;;;;9.77;5.05;;;;;;;;;;4865272;29;22288;-87
2023/03/16 08:31:01;;;;;;;8.13;5.47;;;;;;;;;;4879296;29;20530;-87
2023/03/16 08:33:27;;;;;;;9.48;5.57;;;;;;;;;;4871383;29;20563;-87
2023/03/16 08:35:53;;;;;;;9.98;5.53;;;;;;;;;;4885445;29;20461;-86
2023/03/16 08:38:19;;;;;;;9.32;5.45;;;;;;;;;;4890578;29;20540;-87
2023/03/16 08:40:49;;;;;;;9.48;5.43;;;;;;;;;;4881882;29;20429;-87
2023/03/16 08:43:19;;;;;;;11.13;5.70;;;;;;;;;;4881850;29;20480;-87
2023/03/16 08:45:53;;;;;;;9.50;5.90;;;;;;;;;;4880427;29;20434;-86
2023/03/16 08:51:49;;;;;;;8.82;5.53;;;;;;;;;;4897745;29;20438;-90
2023/03/16 08:54:18;;;;;;;11.30;6.28;;;;;;;;;;4876254;29;20443;-91
2023/03/16 08:56:46;;;;;;;9.65;5.90;;;;;;;;;;4870159;29;20446;-91
2023/03/16 08:59:21;;;;;;;8.38;5.28;;;;;;;;;;4879031;29;20453;-91
2023/03/16 09:02:10;;;;;;;10.15;5.97;;;4.90;99.90;;;;;;4863534;29;20435;-90
2023/03/16 09:04:36;;;;;;;8.80;5.75;;;;;;;;;;4863832;29;20934;-90
2023/03/16 09:07:02;;;;;;;9.75;5.63;;;;;;;;;;4866503;29;20938;-90
2023/03/16 09:09:29;;;;;;;8.45;5.63;;;;;;;;;;4864412;29;20434;-91
2023/03/16 09:11:56;;;;;;;11.30;6.47;;;;;;;;;;4861072;29;20780;-86
2023/03/16 09:14:22;;;;;;;11.35;6.03;;;;;;;;;;4874844;29;20452;-89
2023/03/16 09:16:48;;;;;;;10.07;6.10;;;;;;;;;;4862775;29;20437;-90
2023/03/16 09:19:14;;;;;;;13.60;6.43;;;;;;;;;;4862469;29;20787;-88
2023/03/16 09:21:40;;;;;;;9.45;5.95;;;;;;;;;;4861071;29;20431;-90
2023/03/16 09:24:07;;;;;;;11.10;6.27;;;;;;;;;;4863553;29;20430;-87
2023/03/16 09:26:34;;;;;;;10.85;6.53;;;;;;;;;;4855062;29;20580;-88
2023/03/16 09:29:01;;;;;;;10.63;5.95;;;;;;;;;;4855717;29;20441;-88
2023/03/16 09:31:27;;;;;;;8.98;6.32;;;;;;;;;;4894841;29;20522;-86
2023/03/16 09:33:53;;;;;;;11.18;6.28;;;;;;;;;;4872084;29;20435;-88
2023/03/16 09:36:19;;;;;;;9.25;6.40;;;;;;;;;;4895279;29;20440;-87
2023/03/16 09:38:45;;;;;;;10.38;6.20;;;;;;;;;;4896348;29;20428;-85
2023/03/16 09:41:15;;;;;;;11.13;6.75;;;;;;;;;;4893184;29;20448;-87
2023/03/16 09:43:53;;;;;;;9.93;6.20;;;;;;;;;;4873218;29;20451;-87
2023/03/16 09:46:20;;;;;;;11.35;6.55;;;;;;;;;;4885011;29;21110;-86
2023/03/16 09:48:47;;;;;;;10.52;6.60;;;;;;;;;;4881815;29;20469;-87
2023/03/16 09:51:19;;;;;;;12.20;6.78;;;;;;;;;;4899367;29;20789;-87
2023/03/16 09:53:46;;;;;;;13.10;6.88;;;;;;;;;;4895668;29;20797;-88
2023/03/16 09:56:22;;;;;;;10.93;6.75;;;;;;;;;;4872138;29;20431;-86
2023/03/16 09:58:48;;;;;;;11.52;6.85;;;;;;;;;;4870259;29;20518;-87
2023/03/16 10:01:37;;;;;;;11.82;6.70;;;;;;;;;;4878795;29;20911;-87
2023/03/16 10:04:06;;;;;;;10.95;6.63;;;;;;;;;;4880992;29;20784;-88
2023/03/16 10:06:32;;;;;;;10.13;6.53;;;;;;;;;;4882546;29;20466;-87
2023/03/16 10:09:17;;;;;;;11.18;6.97;;;;;;;;;;4885607;29;20922;-89
2023/03/16 10:11:54;;;;;;;10.85;6.68;;;;;;;;;;4884786;29;20504;-88
2023/03/16 10:14:35;;;;;;;13.10;7.38;;;;;;;;;;4882041;29;20444;-88
2023/03/16 10:17:04;;;;;;;11.35;6.82;;;;;;;;;;4897837;29;20438;-87
2023/03/16 10:19:33;;;;;;;14.18;7.47;;;;;;;;;;4869847;29;20783;-87
2023/03/16 10:22:08;;;;;;;9.95;6.40;;;;;;;;;;4908770;29;20417;-87
2023/03/16 10:24:41;;;;;;;11.63;6.60;;;;;;;;;;4884868;29;20921;-88
2023/03/16 10:27:13;;;;;;;13.13;6.03;;;;;;;;;;4900186;29;20504;-89
2023/03/16 10:29:40;;;;;;;11.38;6.68;;;;;;;;;;4899645;29;20416;-88
2023/03/16 10:32:15;;;;;;;11.13;6.82;;;;;;;;;;4874954;29;20449;-87
2023/03/16 10:34:43;;;;;;;13.07;6.60;;;;;;;;;;4885942;29;20446;-86
2023/03/16 10:37:36;;;;;;;11.18;7.13;;;;;;;;;;5102547;27;20744;-87
2023/03/16 10:40:11;;;;;;;12.40;7.20;;;;;;;;;;5059183;28;20415;-87
2023/03/16 10:42:40;;;;;;;9.90;6.32;;;;;;;;;;5050736;28;20765;-87
2023/03/16 10:45:17;;;;;;;11.48;6.85;;;;;;;;;;5068220;28;20521;-88
2023/03/16 10:47:43;;;;;;;9.18;6.45;;;;;;;;;;5049661;28;20441;-86
2023/03/16 10:50:15;;;;;;;9.65;6.22;;;;;;;;;;5037129;28;20910;-86
2023/03/16 10:52:44;;;;;;;11.00;6.18;;;;;;;;;;5062055;28;20796;-86
2023/03/16 10:55:15;;;;;;;9.93;6.35;;;;;;;;;;5047340;28;20417;-87
2023/03/16 10:57:42;;;;;;;13.68;6.40;;;;;;;;;;5038897;28;20421;-85
2023/03/16 11:00:19;;;;;;;10.30;6.60;;;;;;;;;;5052544;28;20395;-86
2023/03/16 11:02:53;;;;;;;10.30;6.00;;;;;;;;;;5040218;28;20830;-89
2023/03/16 11:05:33;;;;;;;11.05;6.00;;;;;;;;;;5047520;28;20430;-88
2023/03/16 11:07:59;;;;;;;10.82;6.22;;;;;;;;;;5050233;28;20506;-84
2023/03/16 11:10:31;;;;;;;10.10;5.88;;;;;;;;;;5052423;28;20434;-87
2023/03/16 11:13:01;;;;;;;10.00;6.00;;;;;;;;;;5050088;28;20779;-87
2023/03/16 11:15:27;;;;;;;9.48;5.47;;;;;;;;;;5069468;28;20476;-85
2023/03/16 11:17:54;;;;;;;11.07;5.80;;;;;;;;;;5045486;28;20421;-86
2023/03/16 11:20:27;;;;;;;9.63;6.30;;;;;;;;;;5067993;28;20419;-85
2023/03/16 11:22:56;;;;;;;8.85;5.28;;;;;;;;;;5040472;28;20500;-87
2023/03/16 11:25:35;;;;;;;10.10;5.47;;;;;;;;;;5046295;28;20414;-85
2023/03/16 11:28:05;;;;;;;10.60;5.72;;;;;;;;;;5049422;28;20940;-83
2023/03/16 11:30:38;;;;;;;9.40;5.32;;;;;;;;;;5040995;28;20795;-84
2023/03/16 11:33:08;;;;;;;9.82;5.70;;;;;;;;;;5045531;28;20418;-89
2023/03/16 11:35:41;;;;;;;8.43;5.60;;;;;;;;;;5043346;28;20779;-88
2023/03/16 11:38:15;;;;;;;8.43;5.18;;;;;;;;;;5037987;28;20764;-87
2023/03/16 11:40:45;;;;;;;8.63;5.00;;;;;;;;;;5042854;28;20413;-89
2023/03/16 11:43:30;;;;;;;10.40;5.33;;;;;;;;;;5045998;28;20470;-88
2023/03/16 11:46:15;;;;;;;8.65;5.13;;;;;;;;;;5058528;28;20425;-87
2023/03/16 11:49:00;;;;;;;8.68;5.60;;;7.10;99.90;;;;;;5032844;28;20466;-89
2023/03/16 11:51:35;;;;;;;8.57;5.03;;;;;;;;;;5037345;28;20402;-88
2023/03/16 11:54:46;;;;;;;9.50;5.50;;;7.50;99.90;;;;;;5050771;28;20475;-89
2023/03/16 11:57:24;;;;;;;8.13;5.13;;;;;;;;;;5030957;28;20448;-87
2023/03/16 12:00:17;;;;;;;7.38;4.63;;;;;;;;;;5021101;28;20410;-88
2023/03/16 12:03:12;;;;;;;8.35;4.95;;;;;;;;;;5044095;28;20478;-87
2023/03/16 12:06:00;;;;;;;8.30;5.00;;;;;;;;;;5054141;28;20472;-88
2023/03/16 12:08:57;;;;;;;8.57;4.82;;;7.90;99.90;;;;;;5023056;28;20509;-88
2023/03/16 12:11:27;;;;;;;8.83;5.10;;;;;;;;;;5036690;28;20425;-90
2023/03/16 12:14:03;;;;;;;9.35;4.90;;;;;;;;;;5029030;28;20516;-88
2023/03/16 12:16:34;;;;;;;10.23;4.65;;;;;;;;;;5028408;28;20461;-87
2023/03/16 12:19:23;;;;;;;8.52;4.60;;;;;;;;;;5019049;28;20434;-87
2023/03/16 12:22:01;;;;;;;6.05;4.30;;;;;;;;;;5026540;28;20491;-88
2023/03/16 12:24:46;;;;;;;9.32;4.20;;;;;;;;;;5035655;28;20917;-89
2023/03/16 12:27:18;;;;;;;7.28;4.25;;;;;;;;;;5022969;28;20948;-88
2023/03/16 12:30:31;;;;;;;7.25;4.28;;;8.60;99.90;;;;;;5030642;28;20505;-88
2023/03/16 12:33:01;;;;;;;5.70;4.15;;;;;;;;;;5017149;28;20430;-87
2023/03/16 12:35:37;;;;;;;;;;;;;;;;;;;;;
2023/03/16 12:38:13;;;;;;;6.28;3.90;;;;;;;;;;5046972;28;20466;-86
2023/03/16 12:40:57;;;;;;;10.35;4.57;;;;;;;;;;5054085;28;20418;-89
2023/03/16 12:43:27;;;;;;;7.60;4.20;;;;;;;;;;5026042;28;20475;-87
2023/03/16 12:46:30;;;;;;;9.32;4.90;;;;;;;;;;5037796;28;20416;-87
2023/03/16 12:49:01;;;;;;;7.30;4.38;;;;;;;;;;5061040;28;20459;-87
2023/03/16 12:51:40;;;;;;;7.22;4.15;;;;;;;;;;5054349;28;20423;-87
2023/03/16 12:54:27;;;;;;;7.82;4.07;;;;;;;;;;5056749;28;20422;-87
2023/03/16 12:56:59;;;;;;;6.83;3.93;;;;;;;;;;5026125;28;20526;-85
2023/03/16 12:59:37;;;;;;;7.30;4.38;;;;;;;;;;5034404;28;20427;-85
2023/03/16 13:02:06;;;;;;;7.32;4.15;;;;;;;;;;5047716;28;20413;-87
2023/03/16 13:04:40;;;;;;;8.57;4.30;;;;;;;;;;5014202;28;20415;-87
2023/03/16 13:07:15;;;;;;;7.00;4.20;;;;;;;;;;5018281;28;20425;-92
2023/03/16 13:10:07;;;;;;;7.78;4.10;;;;;;;;;;5029939;28;20872;-91
2023/03/16 13:12:36;;;;;;;5.72;4.03;;;;;;;;;;5015246;28;20445;-90
2023/03/16 13:15:40;;;;;;;6.82;4.20;;;;;;;;;;5024876;28;20421;-89
2023/03/16 13:18:22;;;;;;;5.97;3.97;;;;;;;;;;4989524;28;20950;-91
2023/03/16 13:21:20;;;;;;;5.78;3.85;;;;;;;;;;5010538;28;20996;-91
2023/03/16 13:23:54;;;;;;;6.03;3.58;;;;;;;;;;5003225;28;20460;-90
2023/03/16 13:26:44;;;;;;;6.43;3.67;;;;;;;;;;5012624;28;20417;-92
2023/03/16 13:29:34;;;;;;;7.05;4.05;;;;;;;;;;5024886;28;20498;-91
2023/03/16 13:32:20;;;;;;;6.43;3.90;;;;;;;;;;5026423;28;20417;-91
2023/03/16 13:35:38;;;;;;;7.80;3.90;;;9.10;99.90;;;;;;5010145;28;20419;-91
2023/03/16 13:38:14;;;;;;;6.82;3.85;;;;;;;;;;5046501;28;20588;-91
2023/03/16 13:44:04;;;;;;;8.02;4.10;;;;;;;;;;4998465;28;20762;-91
2023/03/16 13:46:55;;;;;;;6.20;3.80;;;;;;;;;;4990041;28;20942;-91
2023/03/16 13:49:36;;;;;;;7.43;4.90;;;;;;;;;;5016344;28;20405;-91
2023/03/16 13:52:05;;;;;;;6.40;3.95;;;;;;;;;;5040737;28;20428;-91
2023/03/16 13:54:43;;;;;;;6.60;3.55;;;;;;;;;;5047678;28;20997;-92
2023/03/16 14:00:26;;;;;;;6.50;3.63;;;;;;;;;;5035548;28;20425;-92
2023/03/16 14:05:46;;;;;;;7.05;3.90;;;;;;;;;;5028359;28;20982;-91
2023/03/16 14:08:28;;;;;;;6.33;3.80;;;;;;;;;;5033370;28;20437;-91
2023/03/16 14:11:17;;;;;;;6.60;3.40;;;;;;;;;;5043215;28;20517;-92
2023/03/16 14:14:03;;;;;;;6.93;3.90;;;;;;;;;;5068363;28;20407;-89
2023/03/16 14:16:30;;;;;;;6.28;3.67;;;;;;;;;;5042436;28;20460;-89
2023/03/16 14:19:33;;;;;;;7.97;3.50;;;;;;;;;;5041015;28;20455;-90
2023/03/16 14:22:08;;;;;;;7.80;3.72;;;;;;;;;;4997780;28;20411;-90
2023/03/16 14:25:06;;;;;;;6.15;3.60;;;;;;;;;;5062625;28;20971;-88
2023/03/16 14:28:18;;;;;;;6.47;3.97;;;;;;;;;;4983875;28;20402;-91
2023/03/16 14:31:21;;;;;;;7.10;3.60;;;;;;;;;;5063093;28;20584;-91
2023/03/16 14:34:11;;;;;;;6.95;3.63;;;;;;;;;;5011609;28;20419;-91
2023/03/16 14:36:58;;;;;;;7.55;3.85;;;;;;;;;;5044010;28;20975;-89
2023/03/16 14:39:27;;;;;;;7.10;3.75;;;;;;;;;;5034526;28;20468;-90
2023/03/16 14:41:57;;;;;;;6.20;3.50;;;;;;;;;;5036103;28;20409;-91
2023/03/16 14:44:26;;;;;;;7.45;4.00;;;;;;;;;;5044244;28;20437;-91
2023/03/16 14:47:05;;;;;;;;;;;;;;;;;;;;;
2023/03/16 14:49:37;;;;;;;6.72;4.15;;;;;;;;;;5039920;28;20454;-90
2023/03/16 14:52:26;;;;;;;6.80;3.88;;;;;;;;;;5056655;28;20426;-91
2023/03/16 14:54:54;;;;;;;8.57;3.92;;;;;;;;;;5027297;28;20508;-91
2023/03/16 15:00:25;;;;;;;6.15;3.85;;;;;;;;;;4977057;28;20493;-91
2023/03/16 15:06:25;;;;;;;6.27;3.90;;;;;;;;;;5003944;28;20422;-89
2023/03/16 15:09:07;;;;;;;6.68;3.90;;;;;;;;;;5042162;28;20910;-90
2023/03/16 15:11:54;;;;;;;6.00;3.92;;;;;;;;;;5029905;28;20452;-89
2023/03/16 15:17:22;;;;;;;6.80;4.05;;;;;;;;;;5044585;28;20480;-89
2023/03/16 15:19:55;;;;;;;8.40;4.20;;;;;;;;;;5037611;28;20416;-90
2023/03/16 15:22:45;;;;;;;7.57;3.70;;;;;;;;;;5058776;28;20403;-91
2023/03/16 15:25:34;;;;;;;7.85;4.00;;;;;;;;;;5034837;28;20411;-89
2023/03/16 15:28:18;;;;;;;6.00;3.90;;;;;;;;;;5047059;28;20396;-91
2023/03/16 15:31:17;;;;;;;9.40;4.13;;;;;;;;;;5060922;28;20401;-91
2023/03/16 15:34:18;;;;;;;5.55;3.80;;;;;;;;;;4958656;28;20962;-91
2023/03/16 15:36:53;;;;;;;6.93;4.23;;;;;;;;;;4973984;28;20561;-90
2023/03/16 15:42:44;;;;;;;8.43;4.22;;;;;;;;;;4975861;28;20537;-90
2023/03/16 15:52:36;;;;;;;;;;;;;;;;;;;;;
2023/03/16 15:55:31;;;;;;;5.22;3.60;;;;;;;;;;4995130;28;20406;-90
2023/03/16 15:58:08;;;;;;;5.75;3.90;;;;;;;;;;4963838;28;20430;-89
2023/03/16 16:00:56;;;;;;;8.45;4.35;;;10.40;99.90;;;;;;4958554;28;20674;-86
2023/03/16 16:07:09;;;;;;;8.85;4.30;;;;;;;;;;4997339;28;20479;-91
2023/03/16 16:09:56;;;;;;;6.15;4.20;;;;;;;;;;4962524;28;20450;-87
2023/03/16 16:19:33;;;;;;;7.35;4.40;;;;;;;;;;4919876;29;20450;-90
2023/03/16 16:22:38;;;;;;;7.10;4.18;;;10.50;99.90;;;;;;4925538;28;20510;-89
2023/03/16 16:25:04;;;;;;;8.07;4.38;;;;;;;;;;4985149;28;20412;-89